Terminal Aerodrome Forecast
Issued by NWS Twin Cities, MN

Home | Current Version | Previous Version | Text Only | Print | Product List | Glossary Off
Versions: 1 2 3 4 5 6 7 8 9 10 11 12 13 14 15 16 17

733
FTUS43 KMPX 231120
TAFEAU
TAF
KEAU 231120Z 2312/2412 12009KT P6SM BKN070 OVC080
     FM232100 16011KT P6SM VCSH OVC030
     FM240000 15009KT P6SM VCSH OVC015
     FM240300 16007KT P6SM -SHRA OVC010
     FM240500 14005KT 4SM -SHRA OVC008
     FM241100 00000KT 3SM -SHRA OVC003=

USA.gov is the U.S. government's official web portal to all federal, state and local government web resources and services.